Terminal Aerodrome Forecast
Issued by NWS Wilmington, OH

Current Version | Previous Version | Graphics & Text | Print | Product List | Glossary On
Versions: 1 2 3 4 5 6 7 8 9 10 11 12 13 14 15
988
FTUS41 KILN 211129
TAFDAY
TAF
KDAY 211129Z 2112/2212 36010KT 4SM BR OVC006
     FM211500 36010KT 4SM BR OVC012
     FM211700 36010KT P6SM SCT022
     FM211800 34010KT P6SM BKN200
     FM220000 34012KT P6SM BKN100
     FM220300 33012G22KT P6SM BKN100
     FM220800 02012G22KT P6SM SCT250=

USA.gov is the U.S. government's official web portal to all federal, state and local government web resources and services.